This is the latest recevied weather packets stored in our database for station/object CYYJ. If no packets are shown the sender has not sent any weather packets the latest 1 day(s).
| Time | Temp. | Humidity | Pressure | Rain* | Wind** | Luminosity | Snow |
|---|---|---|---|---|---|---|---|
| 1836274569 | 15° C | 72% | 1012.9 hPa | - | 2.24 m/s, 100° | - | - |
| 1836274421 | 15° C | 72% | 1012.9 hPa | - | 2.24 m/s, 100° | - | - |
| 1836273969 | 15° C | 72% | 1012.9 hPa | - | 2.24 m/s, 100° | - | - |
| 1778040803 | 11.67° C | 93% | 1013.2 hPa | - | 1.34 m/s, 340° | - | - |
| 1778040321 | 13.89° C | 87% | 1012.5 hPa | - | 1.34 m/s, 60° | - | - |
| 1778039598 | 13.89° C | 87% | 1012.5 hPa | - | 1.34 m/s, 60° | - | - |
| 1778039006 | 13.89° C | 87% | 1012.5 hPa | - | 1.34 m/s, 60° | - | - |
| 1778038405 | 13.89° C | 87% | 1012.5 hPa | - | 1.34 m/s, 60° | - | - |
| 1778037803 | 13.89° C | 87% | 1012.5 hPa | - | 1.34 m/s, 60° | - | - |
| 1778037200 | 13.89° C | 87% | 1012.5 hPa | - | 1.34 m/s, 60° | - | - |
| 1778036598 | 15° C | 77% | 1012.9 hPa | - | 2.24 m/s, 90° | - | - |
| 1778035999 | 15° C | 77% | 1012.9 hPa | - | 2.24 m/s, 90° | - | - |
| 1778035399 | 15° C | 77% | 1012.9 hPa | - | 2.24 m/s, 90° | - | - |
| 1778034798 | 15° C | 77% | 1012.9 hPa | - | 2.24 m/s, 90° | - | - |
| 1778034201 | 15° C | 77% | 1012.9 hPa | - | 2.24 m/s, 90° | - | - |
| 1778033600 | 15° C | 77% | 1012.9 hPa | - | 2.24 m/s, 90° | - | - |
| 1778033001 | 15.56° C | 72% | 1012.9 hPa | - | 3.58 m/s, 100° | - | - |
| 1778032401 | 15.56° C | 72% | 1012.9 hPa | - | 3.58 m/s, 100° | - | - |
| 1778031800 | 15.56° C | 72% | 1012.9 hPa | - | 3.58 m/s, 100° | - | - |
| 1778031201 | 15.56° C | 72% | 1012.9 hPa | - | 3.58 m/s, 100° | - | - |
| 1778030599 | 15.56° C | 72% | 1012.9 hPa | - | 3.58 m/s, 100° | - | - |
| 1778030001 | 15.56° C | 72% | 1012.9 hPa | - | 3.58 m/s, 100° | - | - |
| 1778029399 | 15° C | 82% | 1013.5 hPa | - | 4.47 m/s, 100° | - | - |
| 1778028802 | 15° C | 82% | 1013.5 hPa | - | 4.47 m/s, 100° | - | - |
| 1778028200 | 15° C | 82% | 1013.5 hPa | - | 4.47 m/s, 100° | - | - |
* Rain since midnight (hover to see other rain measurements)
** Current wind speed in m/s (hover to see current wind gust speed)